Time;durP1;ratioP1;P1;durP2;ratioP2;P2;SDS_P1;SDS_P2;PMS_P1;PMS_P2;Temp;Humidity;BMP_temperature;BMP_pressure;BME280_temperature;BME280_humidity;BME280_pressure;Samples;Min_cycle;Max_cycle;Signal;HPM_P1;HPM_P2
2022/04/28 00:00:15;;;;;;;14.30;4.93;;;;;;;-145.50;100.00;65435.88;5080405;28;20055;-68
2022/04/28 00:02:42;;;;;;;9.57;4.43;;;;;;;-145.50;100.00;65435.88;5072290;28;20055;-68
2022/04/28 00:05:10;;;;;;;13.82;5.10;;;;;;;-145.50;100.00;65435.88;5078949;28;20068;-69
2022/04/28 00:07:37;;;;;;;17.20;5.13;;;;;;;-145.50;100.00;65435.88;5062791;28;20040;-68
2022/04/28 00:10:05;;;;;;;12.32;4.80;;;;;;;-145.50;100.00;65435.88;5070552;28;20114;-67
2022/04/28 00:12:32;;;;;;;12.48;4.68;;;;;;;-145.50;100.00;65435.88;5069657;28;20040;-68
2022/04/28 00:14:59;;;;;;;13.00;4.85;;;;;;;-145.50;100.00;65435.88;5076924;28;20048;-68
2022/04/28 00:17:25;;;;;;;18.17;4.93;;;;;;;-145.50;100.00;65435.88;5081944;28;20691;-68
2022/04/28 00:19:52;;;;;;;10.32;4.65;;;;;;;-145.50;100.00;65435.88;5054884;28;20108;-68
2022/04/28 00:22:18;;;;;;;14.18;5.07;;;;;;;-145.50;100.00;65435.88;5076645;28;20493;-67
2022/04/28 00:24:45;;;;;;;13.48;4.63;;;;;;;-145.50;100.00;65435.88;5063683;28;20060;-67
2022/04/28 00:27:11;;;;;;;12.93;4.82;;;;;;;-145.50;100.00;65435.88;5080088;28;20446;-68
2022/04/28 00:29:38;;;;;;;10.75;5.25;;;;;;;-145.50;100.00;65435.88;5071117;28;20430;-68
2022/04/28 00:32:05;;;;;;;10.07;4.78;;;;;;;-145.50;100.00;65435.88;5078759;28;20059;-67
2022/04/28 00:34:32;;;;;;;12.85;5.30;;;;;;;-145.50;100.00;65435.88;5073200;28;20410;-67
2022/04/28 00:36:59;;;;;;;16.88;5.75;;;;;;;-145.50;100.00;65435.88;5059194;28;20082;-67
2022/04/28 00:39:25;;;;;;;14.85;5.95;;;;;;;-145.50;100.00;65435.88;5077277;28;20056;-68
2022/04/28 00:41:52;;;;;;;14.70;5.50;;;;;;;-145.50;100.00;65435.88;5063641;28;20048;-67
2022/04/28 00:44:18;;;;;;;13.38;5.45;;;;;;;-145.50;100.00;65435.88;5076642;28;20353;-67
2022/04/28 00:46:45;;;;;;;11.45;4.32;;;;;;;-145.50;100.00;65435.88;5068524;28;20493;-68
2022/04/28 00:51:59;;;;;;;14.07;5.20;;;;;;;-145.50;100.00;65435.88;5071645;28;20093;-67
2022/04/28 00:54:33;;;;;;;15.30;4.85;;;;;;;-145.50;100.00;65435.88;5078023;28;20058;-68
2022/04/28 00:57:00;;;;;;;12.98;4.15;;;;;;;-145.50;100.00;65435.88;5078033;28;20502;-67
2022/04/28 00:59:29;;;;;;;10.63;5.18;;;;;;;-145.50;100.00;65435.88;5062769;28;20109;-68
2022/04/28 01:01:55;;;;;;;13.65;5.57;;;;;;;-145.50;100.00;65435.88;5072195;28;20459;-68
2022/04/28 01:04:22;;;;;;;10.38;4.82;;;;;;;-145.50;100.00;65435.88;5066115;28;20058;-67
2022/04/28 01:06:51;;;;;;;11.98;4.75;;;;;;;-145.50;100.00;65435.88;5071075;28;20470;-68
2022/04/28 01:09:17;;;;;;;;;;;;;;;-145.50;100.00;65435.88;5063539;28;20106;-67
2022/04/28 01:11:44;;;;;;;12.05;4.75;;;;;;;-145.50;100.00;65435.88;5072714;28;19924;-68
2022/04/28 01:14:10;;;;;;;12.90;5.10;;;;;;;-145.50;100.00;65435.88;5075844;28;20415;-68
2022/04/28 01:16:37;;;;;;;12.45;4.88;;;;;;;-145.50;100.00;65435.88;5070758;28;20047;-67
2022/04/28 01:19:03;;;;;;;11.45;4.97;;;;;;;-145.50;100.00;65435.88;5072977;28;20800;-68
2022/04/28 01:21:30;;;;;;;10.57;5.38;;;;;;;-145.50;100.00;65435.88;5063871;28;20047;-68
2022/04/28 01:23:56;;;;;;;13.43;4.90;;;;;;;-145.50;100.00;65435.88;5074411;28;20337;-68
2022/04/28 01:26:25;;;;;;;19.95;6.53;;;;;;;-145.50;100.00;65435.88;5065514;28;20044;-67
2022/04/28 01:28:52;;;;;;;12.57;5.15;;;;;;;-145.50;100.00;65435.88;5080649;28;20048;-67
2022/04/28 01:31:19;;;;;;;10.93;4.97;;;;;;;-145.50;100.00;65435.88;5073919;28;20056;-68
2022/04/28 01:33:46;;;;;;;14.50;5.13;;;;;;;-145.50;100.00;65435.88;5062143;28;20051;-68
2022/04/28 01:36:12;;;;;;;14.57;5.00;;;;;;;-145.50;100.00;65435.88;5078211;28;20424;-67
2022/04/28 01:38:38;;;;;;;9.88;5.05;;;;;;;-145.50;100.00;65435.88;5076743;28;20448;-67
2022/04/28 01:41:05;;;;;;;9.57;5.03;;;;;;;-145.50;100.00;65435.88;5084308;28;20043;-67
2022/04/28 01:43:31;;;;;;;11.43;4.85;;;;;;;-145.50;100.00;65435.88;5072060;28;20052;-67
2022/04/28 01:45:58;;;;;;;12.98;4.85;;;;;;;-145.50;100.00;65435.88;5079150;28;20048;-67
2022/04/28 01:48:25;;;;;;;15.10;4.95;;;;;;;-145.50;100.00;65435.88;5077922;28;20059;-67
2022/04/28 01:56:21;;;;;;;11.38;5.60;;;;;;;-145.50;100.00;65435.88;5073123;28;20052;-67
2022/04/28 01:58:48;;;;;;;15.23;5.00;;;;;;;-145.50;100.00;65435.88;5073816;28;20044;-68
2022/04/28 02:01:14;;;;;;;15.77;5.05;;;;;;;-145.50;100.00;65435.88;5064970;28;20047;-67
2022/04/28 02:03:41;;;;;;;8.10;4.47;;;;;;;-145.50;100.00;65435.88;5080486;28;20110;-67
2022/04/28 02:06:07;;;;;;;16.75;5.63;;;;;;;-145.50;100.00;65435.88;5072060;28;20433;-67
2022/04/28 02:08:34;;;;;;;15.73;6.00;;;;;;;-145.50;100.00;65435.88;5081807;28;20057;-67
2022/04/28 02:11:00;;;;;;;15.20;5.57;;;;;;;-145.50;100.00;65435.88;5082068;28;20056;-67
2022/04/28 02:13:27;;;;;;;12.65;5.65;;;;;;;-145.50;100.00;65435.88;5068066;28;20052;-67
2022/04/28 02:15:53;;;;;;;9.45;4.60;;;;;;;-145.50;100.00;65435.88;5068263;28;20044;-68
2022/04/28 02:18:20;;;;;;;14.07;5.63;;;;;;;-145.50;100.00;65435.88;5069631;28;20052;-67
2022/04/28 02:20:46;;;;;;;13.48;5.43;;;;;;;-145.50;100.00;65435.88;5063414;28;20664;-67
2022/04/28 02:23:13;;;;;;;12.52;4.72;;;;;;;-145.50;100.00;65435.88;5078892;28;20051;-67
2022/04/28 02:25:40;;;;;;;13.50;5.53;;;;;;;-145.50;100.00;65435.88;5076270;28;20047;-67
2022/04/28 02:28:06;;;;;;;13.85;5.10;;;;;;;-145.50;100.00;65435.88;5075439;28;20138;-66
2022/04/28 02:30:33;;;;;;;11.48;4.95;;;;;;;-145.50;100.00;65435.88;5074055;28;20048;-67
2022/04/28 02:33:11;;;;;;;13.18;5.43;;;;;;;-145.50;100.00;65435.88;5081450;28;20056;-68
2022/04/28 02:35:38;;;;;;;10.18;5.25;;;;;;;-145.50;100.00;65435.88;5074999;28;20540;-67
2022/04/28 02:38:05;;;;;;;18.23;5.85;;;;;;;-145.50;100.00;65435.88;5078462;28;20052;-67
2022/04/28 02:40:32;;;;;;;15.20;5.50;;;;;;;-145.50;100.00;65435.88;5062949;28;20267;-67
2022/04/28 02:42:59;;;;;;;12.38;5.60;;;;;;;-145.50;100.00;65435.88;5067321;28;20048;-67
2022/04/28 02:45:26;;;;;;;15.77;5.82;;;;;;;-145.50;100.00;65435.88;5075479;28;20055;-67
2022/04/28 02:47:52;;;;;;;14.25;5.53;;;;;;;-145.50;100.00;65435.88;5065342;28;20050;-67
2022/04/28 02:50:21;;;;;;;11.05;5.50;;;;;;;-145.50;100.00;65435.88;5074589;28;20043;-68
2022/04/28 02:52:50;;;;;;;15.63;6.43;;;;;;;-145.50;100.00;65435.88;5061533;28;20047;-67
2022/04/28 02:55:16;;;;;;;14.35;6.85;;;;;;;-145.50;100.00;65435.88;5075717;28;20050;-67
2022/04/28 02:57:43;;;;;;;13.43;5.68;;;;;;;-145.50;100.00;65435.88;5057914;28;20044;-68
2022/04/28 03:00:10;;;;;;;11.32;5.20;;;;;;;-145.50;100.00;65435.88;5081192;28;20293;-68
2022/04/28 03:02:36;;;;;;;13.88;5.32;;;;;;;-145.50;100.00;65435.88;5082455;28;20054;-67
2022/04/28 03:05:04;;;;;;;14.30;5.60;;;;;;;-145.50;100.00;65435.88;5070428;28;20062;-67
2022/04/28 03:13:22;;;;;;;13.70;6.05;;;;;;;-145.50;100.00;65435.88;5015291;28;20060;-67
2022/04/28 03:15:49;;;;;;;11.18;5.30;;;;;;;-145.50;100.00;65435.88;5003179;28;20054;-67
2022/04/28 03:18:17;;;;;;;12.98;5.90;;;;;;;-145.50;100.00;65435.88;5013608;28;20576;-67
2022/04/28 03:20:43;;;;;;;15.25;5.60;;;;;;;-145.50;100.00;65435.88;5004314;28;20053;-66
2022/04/28 03:23:13;;;;;;;14.75;6.13;;;;;;;-145.50;100.00;65435.88;5004157;28;20055;-67
2022/04/28 03:25:41;;;;;;;14.75;5.47;;;;;;;-145.50;100.00;65435.88;5016909;28;20081;-67
2022/04/28 03:28:08;;;;;;;9.55;5.00;;;;;;;-145.50;100.00;65435.88;5003289;28;20049;-67
2022/04/28 03:30:35;;;;;;;20.42;5.63;;;;;;;-145.50;100.00;65435.88;5010892;28;20078;-67
2022/04/28 03:33:02;;;;;;;12.02;4.68;;;;;;;-145.50;100.00;65435.88;5003582;28;20045;-67
2022/04/28 03:35:28;;;;;;;12.10;4.90;;;;;;;-145.50;100.00;65435.88;5007121;28;20053;-67
2022/04/28 03:37:58;;;;;;;9.13;4.30;;;;;;;-145.50;100.00;65435.88;4997489;28;20049;-68
2022/04/28 03:40:24;;;;;;;15.45;5.07;;;;;;;-145.50;100.00;65435.88;5015677;28;20068;-68
2022/04/28 03:42:51;;;;;;;15.88;5.32;;;;;;;-145.50;100.00;65435.88;5013939;28;20476;-68
2022/04/28 03:45:17;;;;;;;15.68;5.03;;;;;;;-145.50;100.00;65435.88;5005202;28;20084;-68
2022/04/28 03:47:44;;;;;;;13.35;5.38;;;;;;;-145.50;100.00;65435.88;5055079;28;20582;-68
2022/04/28 03:50:10;;;;;;;14.95;5.43;;;;;;;-145.50;100.00;65435.88;5062310;28;20051;-68
2022/04/28 03:52:37;;;;;;;15.38;4.70;;;;;;;-145.50;100.00;65435.88;5082783;28;20048;-68
2022/04/28 03:55:05;;;;;;;9.40;4.55;;;;;;;-145.50;100.00;65435.88;5070250;28;20481;-67
2022/04/28 03:57:32;;;;;;;15.38;5.57;;;;;;;-145.50;100.00;65435.88;5074427;28;20123;-67
2022/04/28 03:59:58;;;;;;;12.25;5.53;;;;;;;-145.50;100.00;65435.88;5074192;28;20050;-67
2022/04/28 04:02:27;;;;;;;12.90;5.50;;;;;;;-145.50;100.00;65435.88;5058483;28;20055;-66
2022/04/28 04:04:54;;;;;;;14.93;5.50;;;;;;;-145.50;100.00;65435.88;5069364;28;20054;-67
2022/04/28 04:07:20;;;;;;;11.77;4.60;;;;;;;-145.50;100.00;65435.88;5064606;28;20048;-67
2022/04/28 04:09:47;;;;;;;14.73;5.03;;;;;;;-145.50;100.00;65435.88;5079534;28;20040;-67
2022/04/28 04:12:18;;;;;;;11.90;5.32;;;;;;;-145.50;100.00;65435.88;5071379;28;20052;-68
2022/04/28 04:14:44;;;;;;;15.82;5.40;;;;;;;-145.50;100.00;65435.88;5078166;28;20058;-69
2022/04/28 04:17:11;;;;;;;12.95;5.28;;;;;;;-145.50;100.00;65435.88;5077887;28;20136;-67
2022/04/28 04:19:37;;;;;;;9.38;5.50;;;;;;;-145.50;100.00;65435.88;5068833;28;20506;-65
2022/04/28 04:22:04;;;;;;;13.20;5.45;;;;;;;-145.50;100.00;65435.88;5077690;28;20458;-67
2022/04/28 04:24:30;;;;;;;11.43;5.57;;;;;;;-145.50;100.00;65435.88;5068292;28;20512;-67
2022/04/28 04:26:58;;;;;;;11.57;5.63;;;;;;;-145.50;100.00;65435.88;5076736;28;20036;-67
2022/04/28 04:29:24;;;;;;;10.35;4.40;;;;;;;-145.50;100.00;65435.88;5066529;28;20051;-68
2022/04/28 04:34:36;;;;;;;14.73;6.32;;;;;;;-145.50;100.00;65435.88;5065578;28;20047;-68
2022/04/28 04:37:03;;;;;;;22.02;7.95;;;;;;;-145.50;100.00;65435.88;5075821;28;20083;-68
2022/04/28 04:39:29;;;;;;;14.05;6.25;;;;;;;-145.50;100.00;65435.88;5079475;28;20054;-68
2022/04/28 04:41:56;;;;;;;12.57;5.57;;;;;;;-145.50;100.00;65435.88;5070093;28;20048;-68
2022/04/28 04:44:22;;;;;;;17.13;6.03;;;;;;;-145.50;100.00;65435.88;5067086;28;20866;-67
2022/04/28 04:46:49;;;;;;;20.42;5.88;;;;;;;-145.50;100.00;65435.88;5068807;28;20058;-67
2022/04/28 04:49:15;;;;;;;14.63;5.60;;;;;;;-145.50;100.00;65435.88;5079613;28;20507;-67
2022/04/28 04:51:42;;;;;;;15.25;5.65;;;;;;;-145.50;100.00;65435.88;5064257;28;20048;-67
2022/04/28 04:54:08;;;;;;;9.30;5.43;;;;;;;-145.50;100.00;65435.88;5072273;28;20544;-67
2022/04/28 04:56:36;;;;;;;10.98;5.78;;;;;;;-145.50;100.00;65435.88;5071359;28;20051;-67
2022/04/28 04:59:03;;;;;;;13.10;6.05;;;;;;;-145.50;100.00;65435.88;5057396;28;20048;-67
2022/04/28 05:01:29;;;;;;;11.15;6.22;;;;;;;-145.50;100.00;65435.88;5068378;28;20044;-68
2022/04/28 05:03:56;;;;;;;13.80;5.80;;;;;;;-145.50;100.00;65435.88;5069503;28;20043;-68
2022/04/28 05:06:23;;;;;;;13.10;5.53;;;;;;;-145.50;100.00;65435.88;5082794;28;20130;-67
2022/04/28 05:08:54;;;;;;;14.13;5.57;;;;;;;-145.50;100.00;65435.88;5047547;28;20117;-67
2022/04/28 05:11:20;;;;;;;11.52;5.60;;;;;;;-145.50;100.00;65435.88;5056939;28;20052;-67
2022/04/28 05:13:47;;;;;;;15.52;6.35;;;;;;;-145.50;100.00;65435.88;5057605;28;20055;-67
2022/04/28 05:16:13;;;;;;;10.63;5.50;;;;;;;-145.50;100.00;65435.88;5056971;28;20056;-68
2022/04/28 05:18:40;;;;;;;11.52;6.07;;;;;;;-145.50;100.00;65435.88;5070422;28;20091;-68
2022/04/28 05:21:06;;;;;;;15.40;6.10;;;;;;;-145.50;100.00;65435.88;5060658;28;20052;-68
2022/04/28 05:23:33;;;;;;;13.50;5.47;;;;;;;-145.50;100.00;65435.88;5067163;28;20048;-67
2022/04/28 05:25:59;;;;;;;15.43;4.85;;;;;;;-145.50;100.00;65435.88;5068327;28;20056;-68
2022/04/28 05:28:29;;;;;;;12.60;4.32;;;;;;;-145.50;100.00;65435.88;5073545;28;20143;-68
2022/04/28 05:30:56;;;;;;;13.43;5.10;;;;;;;-145.50;100.00;65435.88;5082411;28;20062;-67
2022/04/28 05:33:22;;;;;;;16.95;5.18;;;;;;;-145.50;100.00;65435.88;5069233;28;20555;-67
2022/04/28 05:35:50;;;;;;;16.85;5.32;;;;;;;-145.50;100.00;65435.88;5081850;28;20571;-68
2022/04/28 05:38:16;;;;;;;13.73;4.82;;;;;;;-145.50;100.00;65435.88;5062945;28;20498;-68
2022/04/28 05:40:43;;;;;;;14.40;4.93;;;;;;;-145.50;100.00;65435.88;5073739;28;20067;-68
2022/04/28 05:45:57;;;;;;;8.95;4.90;;;;;;;-145.50;100.00;65435.88;5071529;28;20056;-68
2022/04/28 05:48:24;;;;;;;13.18;5.10;;;;;;;-145.50;100.00;65435.88;5075446;28;20414;-68
2022/04/28 05:50:51;;;;;;;13.35;4.95;;;;;;;-145.50;100.00;65435.88;5070897;28;20044;-68
2022/04/28 05:53:17;;;;;;;17.63;5.95;;;;;;;-145.50;100.00;65435.88;5066634;28;20050;-68
2022/04/28 05:55:45;;;;;;;12.60;5.38;;;;;;;-145.50;100.00;65435.88;5061795;28;20565;-69
2022/04/28 05:58:12;;;;;;;16.73;5.45;;;;;;;-145.50;100.00;65435.88;5069468;28;20056;-68
2022/04/28 06:00:39;;;;;;;14.00;5.40;;;;;;;-145.50;100.00;65435.88;5068456;28;20048;-67
2022/04/28 06:03:05;;;;;;;19.02;6.15;;;;;;;-145.50;100.00;65435.88;5077647;28;20048;-68
2022/04/28 06:05:32;;;;;;;12.10;5.05;;;;;;;-145.50;100.00;65435.88;5063778;28;20473;-68
2022/04/28 06:07:59;;;;;;;13.80;4.30;;;;;;;-145.50;100.00;65435.88;5061808;28;20048;-68
2022/04/28 06:10:25;;;;;;;16.33;5.80;;;;;;;-145.50;100.00;65435.88;5068284;28;20048;-68
2022/04/28 06:12:52;;;;;;;18.50;5.93;;;;;;;-145.50;100.00;65435.88;5060813;28;20472;-68
2022/04/28 06:15:18;;;;;;;16.92;4.30;;;;;;;-145.50;100.00;65435.88;5068259;28;20071;-68
2022/04/28 06:17:45;;;;;;;12.05;5.00;;;;;;;-145.50;100.00;65435.88;5070251;28;20045;-67
2022/04/28 06:20:11;;;;;;;15.10;5.20;;;;;;;-145.50;100.00;65435.88;5063998;28;20072;-67
2022/04/28 06:22:46;;;;;;;14.13;4.50;;;;;;;-145.50;100.00;65435.88;5071975;28;20527;-68
2022/04/28 06:25:13;;;;;;;13.82;4.35;;;;;;;-145.50;100.00;65435.88;5074414;28;20578;-69
2022/04/28 06:27:40;;;;;;;11.32;4.75;;;;;;;-145.50;100.00;65435.88;5074072;28;20102;-68
2022/04/28 06:30:07;;;;;;;12.20;4.60;;;;;;;-145.50;100.00;65435.88;5069001;28;20051;-68
2022/04/28 06:32:34;;;;;;;13.82;4.57;;;;;;;-145.50;100.00;65435.88;5068908;28;20044;-67
2022/04/28 06:35:01;;;;;;;13.65;4.00;;;;;;;-145.50;100.00;65435.88;5072965;28;20060;-68
2022/04/28 06:37:27;;;;;;;12.75;4.68;;;;;;;-145.50;100.00;65435.88;5075713;28;20400;-68
2022/04/28 06:39:53;;;;;;;9.25;3.97;;;;;;;-145.50;100.00;65435.88;5077675;28;20052;-67
2022/04/28 06:42:20;;;;;;;10.75;4.43;;;;;;;-145.50;100.00;65435.88;5084075;28;20048;-67
2022/04/28 06:44:47;;;;;;;11.25;4.05;;;;;;;-145.50;100.00;65435.88;5075314;28;20131;-67
2022/04/28 06:47:14;;;;;;;12.93;4.10;;;;;;;-145.50;100.00;65435.88;5064431;28;20052;-68
2022/04/28 06:49:40;;;;;;;13.68;4.15;;;;;;;-145.50;100.00;65435.88;5066996;28;20052;-67
2022/04/28 06:52:07;;;;;;;10.07;3.63;;;;;;;-145.50;100.00;65435.88;5064448;28;20052;-68
2022/04/28 06:54:33;;;;;;;13.65;3.70;;;;;;;-145.50;100.00;65435.88;5072324;28;20171;-68
2022/04/28 06:57:00;;;;;;;10.50;3.22;;;;;;;-145.50;100.00;65435.88;5063322;28;20094;-68
2022/04/28 06:59:27;;;;;;;9.20;3.83;;;;;;;-145.50;100.00;65435.88;5074372;28;20094;-68
2022/04/28 07:01:53;;;;;;;17.45;4.78;;;;;;;-145.50;100.00;65435.88;5065155;28;20048;-68
2022/04/28 07:04:20;;;;;;;8.63;3.72;;;;;;;-145.50;100.00;65435.88;5069905;28;20417;-68
2022/04/28 07:06:46;;;;;;;8.55;3.95;;;;;;;-145.50;100.00;65435.88;5071553;28;20135;-68
2022/04/28 07:09:17;;;;;;;12.07;4.05;;;;;;;-145.50;100.00;65435.88;5064800;28;20086;-67
2022/04/28 07:11:44;;;;;;;9.23;3.70;;;;;;;-145.50;100.00;65435.88;5071645;28;20211;-68
2022/04/28 07:14:11;;;;;;;13.52;3.63;;;;;;;-145.50;100.00;65435.88;5071957;28;20541;-67
2022/04/28 07:16:37;;;;;;;9.38;3.58;;;;;;;-145.50;100.00;65435.88;5070902;28;20052;-68
2022/04/28 07:19:06;;;;;;;10.60;3.72;;;;;;;-145.50;100.00;65435.88;5071196;28;20059;-67
2022/04/28 07:21:34;;;;;;;9.35;3.47;;;;;;;-145.50;100.00;65435.88;5064719;28;20472;-68
2022/04/28 07:24:00;;;;;;;8.93;3.00;;;;;;;-145.50;100.00;65435.88;5070756;28;20132;-69
2022/04/28 07:26:28;;;;;;;9.75;3.40;;;;;;;-145.50;100.00;65435.88;5063617;28;20550;-67
2022/04/28 07:28:54;;;;;;;7.80;3.00;;;;;;;-145.50;100.00;65435.88;5064129;28;20392;-67
2022/04/28 07:31:21;;;;;;;12.48;3.38;;;;;;;-145.50;100.00;65435.88;5062195;28;20051;-68
2022/04/28 07:33:47;;;;;;;9.35;3.42;;;;;;;-145.50;100.00;65435.88;5069929;28;20494;-70
2022/04/28 07:36:14;;;;;;;12.98;4.22;;;;;;;-145.50;100.00;65435.88;5072665;28;20115;-68
2022/04/28 07:38:44;;;;;;;7.53;2.75;;;;;;;-145.50;100.00;65435.88;5064274;28;20052;-68
2022/04/28 07:41:12;;;;;;;13.30;3.10;;;;;;;-145.50;100.00;65435.88;5066596;28;20088;-68
2022/04/28 07:43:38;;;;;;;5.95;2.90;;;;;;;-145.50;100.00;65435.88;5063893;28;20057;-68
2022/04/28 07:46:05;;;;;;;8.75;3.42;;;;;;;-145.50;100.00;65435.88;5074834;28;20058;-68
2022/04/28 07:48:31;;;;;;;8.23;3.65;;;;;;;-145.50;100.00;65435.88;5068199;28;20091;-68
2022/04/28 07:50:58;;;;;;;12.13;3.90;;;;;;;-145.50;100.00;65435.88;5083172;28;20058;-68
2022/04/28 07:53:24;;;;;;;7.90;3.10;;;;;;;-145.50;100.00;65435.88;5077135;28;20144;-68
2022/04/28 07:58:37;;;;;;;9.10;3.83;;;;;;;-145.50;100.00;65435.88;5068458;28;20051;-68
2022/04/28 08:01:04;;;;;;;11.77;3.42;;;;;;;-145.50;100.00;65435.88;5071759;28;20569;-68
2022/04/28 08:03:31;;;;;;;12.35;4.28;;;;;;;-145.50;100.00;65435.88;5073476;28;20485;-68
2022/04/28 08:05:58;;;;;;;10.25;3.90;;;;;;;-145.50;100.00;65435.88;5072171;28;20131;-67
2022/04/28 08:08:25;;;;;;;12.10;3.95;;;;;;;-145.50;100.00;65435.88;5090686;28;20052;-68
2022/04/28 08:10:51;;;;;;;7.95;4.20;;;;;;;-145.50;100.00;65435.88;5074688;28;20056;-69
2022/04/28 08:13:18;;;;;;;12.40;3.90;;;;;;;-145.50;100.00;65435.88;5073155;28;20420;-68
2022/04/28 08:15:44;;;;;;;13.90;4.03;;;;;;;-145.50;100.00;65435.88;5083478;28;20054;-68
2022/04/28 08:18:11;;;;;;;9.82;3.53;;;;;;;-145.50;100.00;65435.88;5068970;28;20044;-68
2022/04/28 08:20:40;;;;;;;9.05;3.65;;;;;;;-145.50;100.00;65435.88;5070966;28;20054;-68
2022/04/28 08:23:07;;;;;;;15.27;3.78;;;;;;;-145.50;100.00;65435.88;5061012;28;20493;-68
2022/04/28 08:25:34;;;;;;;22.10;4.93;;;;;;;-145.50;100.00;65435.88;5078229;28;20052;-69
2022/04/28 08:28:00;;;;;;;12.05;3.92;;;;;;;-145.50;100.00;65435.88;5077653;28;20053;-68
2022/04/28 08:30:27;;;;;;;11.50;3.45;;;;;;;-145.50;100.00;65435.88;5068789;28;20059;-68
2022/04/28 08:32:53;;;;;;;13.15;4.35;;;;;;;-145.50;100.00;65435.88;5080925;28;20044;-67
2022/04/28 08:35:20;;;;;;;12.27;5.05;;;;;;;-145.50;100.00;65435.88;5062129;28;20056;-68
2022/04/28 08:37:46;;;;;;;9.13;3.38;;;;;;;-145.50;100.00;65435.88;5065116;28;20050;-69
2022/04/28 08:40:13;;;;;;;9.23;3.95;;;;;;;-145.50;100.00;65435.88;5076929;28;20420;-69
2022/04/28 08:42:42;;;;;;;9.18;4.15;;;;;;;-145.50;100.00;65435.88;5084865;28;20155;-68
2022/04/28 08:45:08;;;;;;;11.50;4.60;;;;;;;-145.50;100.00;65435.88;5080003;28;20066;-68
2022/04/28 08:47:36;;;;;;;8.45;3.85;;;;;;;-145.50;100.00;65435.88;5078065;28;20055;-68
2022/04/28 08:50:03;;;;;;;7.28;3.38;;;;;;;-145.50;100.00;65435.88;5076660;28;20044;-69
2022/04/28 08:52:30;;;;;;;12.70;3.47;;;;;;;-145.50;100.00;65435.88;5065153;28;20071;-69
2022/04/28 08:54:56;;;;;;;11.50;3.92;;;;;;;-145.50;100.00;65435.88;5074256;28;20048;-69
2022/04/28 08:57:23;;;;;;;14.07;4.00;;;;;;;-145.50;100.00;65435.88;5074238;28;20136;-69
2022/04/28 08:59:51;;;;;;;10.10;3.50;;;;;;;-145.50;100.00;65435.88;5076681;28;20047;-68
2022/04/28 09:02:29;;;;;;;7.60;3.35;;;;;;;-145.50;100.00;65435.88;5078900;28;20083;-69
2022/04/28 09:05:00;;;;;;;;;;;;;;;-145.50;100.00;65435.88;5065263;28;20056;-68
2022/04/28 09:07:35;;;;;;;16.13;3.97;;;;;;;-145.50;100.00;65435.88;5064719;28;19979;-69
2022/04/28 09:10:29;;;;;;;12.10;3.88;;;;;;;-145.50;100.00;65435.88;5064832;28;20135;-69
2022/04/28 09:15:51;;;;;;;10.48;3.60;;;;;;;-145.50;100.00;65435.88;5073720;28;20055;-68
2022/04/28 09:18:19;;;;;;;10.25;3.83;;;;;;;-145.50;100.00;65435.88;5076005;28;20550;-68
2022/04/28 09:20:47;;;;;;;11.02;3.63;;;;;;;-145.50;100.00;65435.88;5056578;28;20045;-68
2022/04/28 09:23:14;;;;;;;10.65;3.95;;;;;;;-145.50;100.00;65435.88;5069232;28;20807;-69
2022/04/28 09:25:42;;;;;;;12.48;3.95;;;;;;;-145.50;100.00;65435.88;5045508;28;20048;-69
2022/04/28 09:28:11;;;;;;;11.18;4.20;;;;;;;-145.50;100.00;65435.88;5072247;28;20060;-68
2022/04/28 09:30:45;;;;;;;9.55;3.75;;;;;;;-145.50;100.00;65435.88;5069654;28;20533;-68
2022/04/28 09:33:12;;;;;;;8.63;3.70;;;;;;;-145.50;100.00;65435.88;5060772;28;20678;-69
2022/04/28 09:35:48;;;;;;;10.30;3.78;;;;;;;-145.50;100.00;65435.88;5067689;28;20093;-69
2022/04/28 09:38:15;;;;;;;13.48;3.88;;;;;;;-145.50;100.00;65435.88;5070848;28;20110;-69
2022/04/28 09:43:49;;;;;;;8.80;3.78;;;;;;;-145.50;100.00;65435.88;5069881;28;20072;-69
2022/04/28 09:46:20;;;;;;;13.93;4.30;;;;;;;-145.50;100.00;65435.88;5067102;28;20048;-70
2022/04/28 09:48:49;;;;;;;8.00;3.05;;;;;;;-145.50;100.00;65435.88;5060746;28;20557;-69
2022/04/28 09:51:20;;;;;;;;;;;;;;;-145.50;100.00;65435.88;5082481;28;20063;-69
2022/04/28 09:53:47;;;;;;;10.48;3.58;;;;;;;-145.50;100.00;65435.88;5074958;28;19931;-69
2022/04/28 09:56:15;;;;;;;13.45;4.20;;;;;;;-145.50;100.00;65435.88;5071841;28;20052;-69
2022/04/28 09:58:42;;;;;;;6.72;3.60;;;;;;;-145.50;100.00;65435.88;5072810;28;20083;-69
2022/04/28 10:01:08;;;;;;;13.85;4.72;;;;;;;-145.50;100.00;65435.88;5060326;28;20056;-69
2022/04/28 10:03:39;;;;;;;6.70;3.70;;;;;;;-145.50;100.00;65435.88;5069290;28;20053;-69
2022/04/28 10:06:06;;;;;;;6.68;3.53;;;;;;;-145.50;100.00;65435.88;5072052;28;20059;-69
2022/04/28 10:08:34;;;;;;;13.57;3.42;;;;;;;-145.50;100.00;65435.88;5081216;28;20127;-69
2022/04/28 10:11:03;;;;;;;8.23;3.97;;;;;;;-145.50;100.00;65435.88;5068062;28;20082;-69
2022/04/28 10:13:31;;;;;;;13.13;3.60;;;;;;;-145.50;100.00;65435.88;5078513;28;20287;-67
2022/04/28 10:16:05;;;;;;;9.25;4.30;;;;;;;-145.50;100.00;65435.88;5079419;28;20135;-68
2022/04/28 10:18:37;;;;;;;9.23;3.75;;;;;;;-145.50;100.00;65435.88;5072264;28;20052;-69
2022/04/28 10:21:08;;;;;;;7.88;3.70;;;;;;;-145.50;100.00;65435.88;5074197;28;20152;-68
2022/04/28 10:32:53;;;;;;;8.73;3.78;;;;;;;-145.50;100.00;65435.88;5069290;28;20493;-67
2022/04/28 10:35:37;;;;;;;14.65;4.78;;;;;;;-145.50;100.00;65435.88;5074645;28;20536;-68
2022/04/28 10:38:34;;;;;;;9.57;4.20;;;;;;;-145.50;100.00;65435.88;5072540;28;20037;-68
2022/04/28 10:41:05;;;;;;;13.90;4.32;;;;;;;-145.50;100.00;65435.88;5076533;28;20052;-69
2022/04/28 10:43:32;;;;;;;9.02;4.45;;;;;;;-145.50;100.00;65435.88;5074010;28;20076;-69
2022/04/28 10:46:22;;;;;;;9.65;4.22;;;;;;;-145.50;100.00;65435.88;5062355;28;20048;-69
2022/04/28 10:48:53;;;;;;;12.93;4.60;;;;;;;-145.50;100.00;65435.88;5078752;28;20058;-68
2022/04/28 10:51:22;;;;;;;9.60;4.40;;;;;;;-145.50;100.00;65435.88;5075319;27;20060;-69
2022/04/28 10:54:21;;;;;;;11.70;5.28;;;;;;;-145.50;100.00;65435.88;5080296;28;20143;-68
2022/04/28 10:56:54;;;;;;;11.75;4.47;;;;;;;-145.50;100.00;65435.88;5064881;28;20516;-68
2022/04/28 10:59:29;;;;;;;8.38;4.57;;;;;;;-145.50;100.00;65435.88;5069120;28;20076;-69
2022/04/28 11:01:56;;;;;;;13.85;5.13;;;;;;;-145.50;100.00;65435.88;5073752;28;20102;-69
2022/04/28 11:04:25;;;;;;;10.68;4.25;;;;;;;-145.50;100.00;65435.88;5072873;28;20063;-68
2022/04/28 11:06:55;;;;;;;11.30;4.68;;;;;;;-145.50;100.00;65435.88;5076661;28;20095;-68
2022/04/28 11:09:33;;;;;;;12.13;5.13;;;;;;;-145.50;100.00;65435.88;5079581;28;20109;-68
2022/04/28 11:12:26;;;;;;;;;;;;;;;-145.50;100.00;65435.88;5066773;28;20063;-68
2022/04/28 11:15:03;;;;;;;8.60;3.95;;;;;;;-145.50;100.00;65435.88;5066416;28;19924;-68
2022/04/28 11:17:36;;;;;;;12.60;4.38;;;;;;;-145.50;100.00;65435.88;5093620;28;20180;-69
2022/04/28 11:20:07;;;;;;;11.57;4.63;;;;;;;-145.50;100.00;65435.88;5073311;28;20485;-69
2022/04/28 11:22:43;;;;;;;9.00;3.95;;;;;;;-145.50;100.00;65435.88;5073223;28;20052;-70
2022/04/28 11:25:12;;;;;;;13.02;4.63;;;;;;;-145.50;100.00;65435.88;5061873;28;20407;-69
2022/04/28 11:27:40;;;;;;;9.32;4.13;;;;;;;-145.50;100.00;65435.88;5067690;28;20059;-69
2022/04/28 11:30:14;;;;;;;9.35;4.32;;;;;;;-145.50;100.00;65435.88;5072380;28;20049;-69
2022/04/28 11:32:50;;;;;;;9.63;4.47;;;;;;;-145.50;100.00;65435.88;5064459;28;20468;-69
2022/04/28 11:35:16;;;;;;;10.15;4.43;;;;;;;-145.50;100.00;65435.88;5075467;28;20043;-69
2022/04/28 11:37:43;;;;;;;14.20;5.10;;;;;;;-145.50;100.00;65435.88;5068883;28;20668;-69
2022/04/28 11:40:14;;;;;;;10.63;4.40;;;;;;;-145.50;100.00;65435.88;5078719;28;20406;-70
2022/04/28 11:43:02;;;;;;;11.23;4.53;;;;;;;-145.50;100.00;65435.88;5073638;28;20054;-69
2022/04/28 11:45:31;;;;;;;10.82;4.65;;;;;;;-145.50;100.00;65435.88;5081876;28;20477;-70